createdAt,value
2023-04-15T00:01:19.879Z,10.98
2023-04-15T00:03:49.131Z,11.03
2023-04-15T00:06:17.912Z,11.05
2023-04-15T00:08:46.787Z,11.05
2023-04-15T00:11:18.505Z,11.07
2023-04-15T00:13:47.381Z,11.07
2023-04-15T00:16:16.471Z,11.10
2023-04-15T00:18:44.831Z,11.14
2023-04-15T00:21:15.307Z,11.20
2023-04-15T00:23:44.268Z,11.25
2023-04-15T00:26:13.489Z,11.26
2023-04-15T00:28:44.876Z,11.21
2023-04-15T00:31:14.396Z,11.24
2023-04-15T00:33:42.794Z,11.21
2023-04-15T00:36:12.395Z,11.23
2023-04-15T00:38:41.020Z,11.17
2023-04-15T00:41:10.749Z,11.14
2023-04-15T00:43:39.543Z,11.08
2023-04-15T00:46:11.245Z,11.03
2023-04-15T00:48:40.137Z,11.02
2023-04-15T00:51:09.834Z,11.03
2023-04-15T00:53:38.231Z,11.03
2023-04-15T00:56:08.150Z,11.01
2023-04-15T00:58:37.247Z,11.02
2023-04-15T01:01:06.507Z,11.02
2023-04-15T01:03:37.128Z,11.01
2023-04-15T01:06:06.776Z,10.94
2023-04-15T01:08:35.645Z,10.91
2023-04-15T01:11:05.132Z,10.90
2023-04-15T01:13:35.382Z,10.90
2023-04-15T01:16:04.438Z,10.92
2023-04-15T01:18:33.358Z,10.96
2023-04-15T01:21:03.923Z,10.96
2023-04-15T01:23:33.305Z,10.91
2023-04-15T01:26:04.500Z,10.89
2023-04-15T01:28:33.053Z,10.90
2023-04-15T01:31:09.376Z,10.89
2023-04-15T01:33:42.414Z,10.89
2023-04-15T01:36:11.856Z,10.89
2023-04-15T01:38:40.745Z,10.93
2023-04-15T01:41:11.313Z,10.95
2023-04-15T01:43:39.920Z,10.93
2023-04-15T01:46:11.359Z,10.95
2023-04-15T01:48:39.710Z,10.91
2023-04-15T01:51:08.507Z,10.91
2023-04-15T01:53:37.470Z,10.88
2023-04-15T01:56:07.363Z,10.86
2023-04-15T01:58:37.457Z,10.88
2023-04-15T02:01:07.147Z,10.88
2023-04-15T02:03:35.677Z,10.85
2023-04-15T02:06:06.332Z,10.77
2023-04-15T02:08:34.964Z,10.89
2023-04-15T02:11:04.240Z,10.88
2023-04-15T02:13:33.723Z,10.87
2023-04-15T02:16:05.268Z,10.84
2023-04-15T02:18:33.811Z,10.85
2023-04-15T02:21:02.830Z,10.85
2023-04-15T02:23:31.184Z,10.87
2023-04-15T02:26:00.099Z,10.87
2023-04-15T02:28:28.739Z,10.93
2023-04-15T02:30:59.413Z,10.97
2023-04-15T02:33:29.461Z,10.98
2023-04-15T02:35:58.197Z,10.96
2023-04-15T02:38:28.290Z,10.96
2023-04-15T02:40:57.749Z,10.94
2023-04-15T02:43:26.398Z,10.97
2023-04-15T02:45:55.159Z,11.00
2023-04-15T02:48:23.591Z,11.01
2023-04-15T02:50:53.923Z,10.94
2023-04-15T02:53:22.275Z,10.98
2023-04-15T02:55:51.976Z,10.86
2023-04-15T02:58:20.640Z,10.94
2023-04-15T03:05:22.218Z,10.84
2023-04-15T03:07:54.854Z,10.83
2023-04-15T03:10:23.593Z,10.86
2023-04-15T03:12:52.500Z,10.89
2023-04-15T03:15:23.917Z,10.93
2023-04-15T03:17:55.092Z,10.90
2023-04-15T03:20:23.821Z,10.88
2023-04-15T03:22:54.516Z,10.87
2023-04-15T03:25:25.207Z,10.89
2023-04-15T03:27:54.940Z,10.85
2023-04-15T03:30:23.716Z,10.88
2023-04-15T03:32:53.045Z,10.87
2023-04-15T03:35:21.913Z,10.87
2023-04-15T03:37:51.102Z,10.87
2023-04-15T03:40:23.222Z,10.88
2023-04-15T03:42:52.202Z,10.89
2023-04-15T03:45:20.661Z,10.87
2023-04-15T03:47:49.904Z,10.84
2023-04-15T03:50:18.840Z,10.83
2023-04-15T03:52:48.709Z,10.85
2023-04-15T03:55:20.280Z,10.83
2023-04-15T03:57:49.029Z,10.85
2023-04-15T04:00:17.538Z,10.86
2023-04-15T04:02:47.198Z,10.83
2023-04-15T04:05:15.876Z,10.77
2023-04-15T04:07:44.913Z,10.80
2023-04-15T04:10:13.780Z,10.80
2023-04-15T04:12:44.384Z,10.71
2023-04-15T04:15:13.370Z,10.81
2023-04-15T04:17:42.548Z,10.80
2023-04-15T04:20:11.444Z,10.79
2023-04-15T04:22:40.983Z,10.78
2023-04-15T04:25:11.317Z,10.86
2023-04-15T04:27:41.052Z,10.84
2023-04-15T04:30:12.752Z,10.79
2023-04-15T04:32:41.742Z,10.87
2023-04-15T04:35:11.607Z,10.85
2023-04-15T04:37:40.710Z,10.86
2023-04-15T04:40:10.864Z,10.91
2023-04-15T04:42:40.767Z,10.90
2023-04-15T04:45:11.386Z,10.95
2023-04-15T04:47:40.319Z,10.97
2023-04-15T04:50:10.801Z,10.99
2023-04-15T04:52:40.714Z,11.02
2023-04-15T04:55:09.787Z,11.01
2023-04-15T04:57:39.629Z,10.95
2023-04-15T05:00:12.751Z,11.03
2023-04-15T05:02:42.566Z,11.10
2023-04-15T05:05:15.311Z,11.03
2023-04-15T05:07:44.893Z,10.99
2023-04-15T05:10:14.904Z,11.00
2023-04-15T05:12:43.610Z,11.03
2023-04-15T05:15:14.377Z,10.95
2023-04-15T05:17:43.458Z,10.98
2023-04-15T05:20:12.926Z,10.98
2023-04-15T05:22:41.604Z,10.90
2023-04-15T05:25:10.593Z,10.89
2023-04-15T05:27:40.302Z,10.95
2023-04-15T05:30:11.617Z,11.01
2023-04-15T05:32:44.096Z,10.99
2023-04-15T05:35:12.908Z,10.98
2023-04-15T05:37:41.599Z,11.03
2023-04-15T05:40:11.200Z,11.14
2023-04-15T05:42:40.288Z,11.16
2023-04-15T05:45:09.772Z,11.18
2023-04-15T05:47:38.889Z,11.24
2023-04-15T05:50:10.161Z,11.23
2023-04-15T05:52:38.877Z,11.31
2023-04-15T05:55:08.204Z,11.34
2023-04-15T05:57:37.904Z,11.30
2023-04-15T06:00:08.189Z,11.32
2023-04-15T06:02:39.826Z,11.35
2023-04-15T06:05:11.947Z,11.36
2023-04-15T06:07:40.659Z,11.43
2023-04-15T06:10:10.196Z,11.48
2023-04-15T06:12:39.151Z,11.49
2023-04-15T06:15:10.093Z,11.58
2023-04-15T06:17:39.275Z,11.60
2023-04-15T06:20:10.595Z,11.62
2023-04-15T06:22:40.145Z,11.61
2023-04-15T06:25:09.539Z,11.61
2023-04-15T06:27:39.080Z,11.63
2023-04-15T06:30:08.618Z,11.71
2023-04-15T06:32:37.286Z,11.62
2023-04-15T06:35:06.541Z,11.72
2023-04-15T06:37:36.959Z,11.74
2023-04-15T06:40:06.072Z,11.80
2023-04-15T06:42:35.244Z,11.78
2023-04-15T06:45:03.969Z,11.81
2023-04-15T06:47:32.669Z,11.81
2023-04-15T06:50:01.302Z,11.82
2023-04-15T06:52:30.304Z,11.81
2023-04-15T06:55:01.059Z,11.85
2023-04-15T06:57:30.197Z,11.91
2023-04-15T06:59:58.604Z,11.97
2023-04-15T07:02:27.724Z,11.99
2023-04-15T07:04:57.118Z,11.96
2023-04-15T07:07:26.625Z,12.05
2023-04-15T07:09:55.329Z,12.15
2023-04-15T07:12:25.572Z,12.28
2023-04-15T07:14:54.379Z,12.33
2023-04-15T07:17:23.219Z,12.47
2023-04-15T07:19:51.671Z,12.51
2023-04-15T07:22:20.771Z,12.66
2023-04-15T07:24:49.445Z,12.80
2023-04-15T07:27:18.587Z,12.91
2023-04-15T07:29:49.342Z,13.04
2023-04-15T07:32:17.987Z,13.11
2023-04-15T07:34:46.546Z,13.15
2023-04-15T07:37:16.882Z,13.07
2023-04-15T07:39:45.340Z,13.09
2023-04-15T07:42:14.245Z,13.15
2023-04-15T07:44:42.888Z,13.22
2023-04-15T07:47:13.646Z,13.25
2023-04-15T07:49:43.464Z,13.25
2023-04-15T07:52:12.821Z,13.24
2023-04-15T07:54:41.187Z,13.25
2023-04-15T07:57:09.931Z,13.24
2023-04-15T07:59:38.570Z,13.28
2023-04-15T08:02:08.674Z,13.27
2023-04-15T08:04:39.630Z,13.30
2023-04-15T08:07:09.202Z,13.38
2023-04-15T08:09:38.055Z,13.38
2023-04-15T08:12:09.881Z,13.48
2023-04-15T08:14:38.965Z,13.63
2023-04-15T08:17:08.009Z,13.69
2023-04-15T08:19:37.723Z,13.78
2023-04-15T08:22:10.490Z,13.86
2023-04-15T08:24:46.755Z,13.95
2023-04-15T08:27:15.538Z,14.10
2023-04-15T08:29:45.517Z,14.18
2023-04-15T08:32:15.038Z,14.33
2023-04-15T08:34:43.568Z,14.36
2023-04-15T08:37:14.366Z,14.20
2023-04-15T08:39:42.769Z,14.15
2023-04-15T08:42:18.019Z,13.98
2023-04-15T08:44:48.011Z,13.94
2023-04-15T08:47:21.845Z,13.96
2023-04-15T08:49:54.149Z,14.01
2023-04-15T08:52:26.610Z,14.08
2023-04-15T08:54:59.882Z,14.00
2023-04-15T08:57:29.993Z,13.98
2023-04-15T08:59:58.824Z,13.97
2023-04-15T09:02:28.618Z,13.98
2023-04-15T09:04:58.937Z,13.90
2023-04-15T09:07:29.254Z,13.76
2023-04-15T09:09:57.900Z,13.59
2023-04-15T09:12:26.878Z,13.42
2023-04-15T09:14:55.713Z,13.47
2023-04-15T09:17:26.779Z,13.38
2023-04-15T09:20:10.516Z,13.18
2023-04-15T09:22:41.682Z,13.06
2023-04-15T09:25:33.435Z,12.97
2023-04-15T09:28:03.968Z,12.97
2023-04-15T09:30:32.314Z,12.91
2023-04-15T09:33:11.067Z,12.97
2023-04-15T09:35:39.796Z,12.89
2023-04-15T09:38:11.376Z,12.87
2023-04-15T09:40:41.486Z,12.82
2023-04-15T09:43:13.756Z,12.85
2023-04-15T09:45:49.356Z,12.94
2023-04-15T09:48:20.990Z,12.98
2023-04-15T09:50:50.670Z,12.75
2023-04-15T09:53:22.440Z,13.12
2023-04-15T09:55:55.684Z,13.16
2023-04-15T09:58:26.611Z,13.20
2023-04-15T10:00:57.582Z,13.31
2023-04-15T10:03:29.218Z,13.25
2023-04-15T10:05:59.133Z,13.36
2023-04-15T10:08:31.658Z,13.29
2023-04-15T10:11:00.196Z,13.13
2023-04-15T10:13:33.062Z,12.96
2023-04-15T10:16:06.736Z,12.94
2023-04-15T10:18:37.575Z,12.93
2023-04-15T10:21:07.104Z,12.90
2023-04-15T10:23:38.184Z,12.87
2023-04-15T10:26:07.213Z,12.82
2023-04-15T10:28:36.412Z,12.84
2023-04-15T10:31:07.627Z,12.87
2023-04-15T10:33:36.949Z,12.93
2023-04-15T10:36:06.620Z,12.80
2023-04-15T10:38:43.551Z,12.88
2023-04-15T10:41:21.071Z,12.92
2023-04-15T10:43:53.133Z,12.98
2023-04-15T10:46:24.205Z,13.08
2023-04-15T10:48:54.248Z,13.18
2023-04-15T10:51:30.106Z,13.13
2023-04-15T10:54:01.712Z,13.07
2023-04-15T10:56:31.559Z,13.07
2023-04-15T10:59:02.295Z,13.09
2023-04-15T11:01:53.142Z,13.12
2023-04-15T11:04:55.460Z,13.10
2023-04-15T11:07:41.348Z,13.22
2023-04-15T11:10:55.346Z,13.24
2023-04-15T11:13:30.706Z,13.32
2023-04-15T11:16:01.996Z,13.35
2023-04-15T11:18:33.149Z,13.35
2023-04-15T11:21:04.543Z,13.38
2023-04-15T11:23:38.860Z,13.48
2023-04-15T11:26:10.003Z,13.55
2023-04-15T11:28:42.290Z,13.73
2023-04-15T11:31:13.437Z,13.97
2023-04-15T11:33:49.004Z,14.19
2023-04-15T11:36:18.128Z,14.38
2023-04-15T11:38:49.110Z,14.46
2023-04-15T11:41:22.464Z,14.49
2023-04-15T11:43:53.085Z,14.51
2023-04-15T11:46:22.941Z,14.56
2023-04-15T11:48:51.576Z,14.56
2023-04-15T11:51:22.107Z,14.45
2023-04-15T11:53:52.154Z,14.35
2023-04-15T11:56:22.488Z,14.51
2023-04-15T11:58:57.137Z,14.52
2023-04-15T12:01:32.984Z,14.57
2023-04-15T12:04:02.449Z,14.70
2023-04-15T12:06:35.155Z,14.89
2023-04-15T12:09:10.032Z,15.08
2023-04-15T12:11:44.796Z,15.56
2023-04-15T12:14:22.684Z,16.03
2023-04-15T12:16:54.389Z,16.40
2023-04-15T12:19:27.732Z,16.68
2023-04-15T12:22:01.562Z,16.64
2023-04-15T12:24:33.069Z,16.61
2023-04-15T12:27:05.195Z,16.49
2023-04-15T12:29:36.715Z,16.38
2023-04-15T12:32:10.537Z,16.24
2023-04-15T12:34:40.637Z,15.95
2023-04-15T12:37:11.031Z,15.82
2023-04-15T12:39:42.019Z,15.71
2023-04-15T12:42:11.828Z,15.51
2023-04-15T12:44:41.872Z,15.21
2023-04-15T12:47:11.923Z,15.02
2023-04-15T12:49:41.340Z,14.76
2023-04-15T12:52:10.241Z,14.69
2023-04-15T12:54:38.860Z,14.60
2023-04-15T12:57:07.969Z,14.36
2023-04-15T12:59:36.908Z,14.34
2023-04-15T13:02:07.680Z,14.29
2023-04-15T13:04:36.234Z,14.19
2023-04-15T13:07:04.995Z,14.10
2023-04-15T13:09:33.446Z,13.95
2023-04-15T13:12:04.587Z,13.91
2023-04-15T13:14:33.031Z,13.81
2023-04-15T13:17:02.925Z,13.70
2023-04-15T13:19:33.250Z,13.60
2023-04-15T13:22:03.983Z,13.51
2023-04-15T13:24:32.889Z,13.49
2023-04-15T13:27:01.668Z,13.43
2023-04-15T13:29:30.468Z,13.35
2023-04-15T13:31:59.186Z,13.35
2023-04-15T13:34:27.615Z,13.31
2023-04-15T13:36:58.392Z,13.22
2023-04-15T13:39:26.741Z,13.18
2023-04-15T13:41:56.124Z,13.21
2023-04-15T13:44:24.603Z,13.16
2023-04-15T13:46:55.043Z,13.13
2023-04-15T13:49:23.477Z,13.06
2023-04-15T13:51:52.707Z,13.04
2023-04-15T13:54:22.748Z,13.02
2023-04-15T13:56:51.845Z,13.03
2023-04-15T13:59:20.474Z,13.04
2023-04-15T14:01:49.676Z,13.05
2023-04-15T14:04:18.116Z,13.07
2023-04-15T14:06:47.509Z,13.11
2023-04-15T14:09:16.257Z,13.18
2023-04-15T14:11:46.661Z,13.10
2023-04-15T14:14:16.315Z,13.14
2023-04-15T14:16:45.347Z,13.11
2023-04-15T14:19:14.026Z,13.14
2023-04-15T14:21:42.893Z,13.11
2023-04-15T14:24:12.592Z,13.11
2023-04-15T14:26:41.459Z,13.04
2023-04-15T14:29:11.886Z,13.00
2023-04-15T14:31:41.196Z,13.00
2023-04-15T14:34:11.596Z,13.02
2023-04-15T14:36:41.918Z,13.03
2023-04-15T14:39:10.604Z,13.01
2023-04-15T14:41:39.289Z,13.05
2023-04-15T14:44:09.741Z,13.07
2023-04-15T14:46:41.229Z,13.10
2023-04-15T14:49:10.738Z,13.07
2023-04-15T14:51:41.649Z,13.08
2023-04-15T14:54:10.715Z,13.11
2023-04-15T14:56:39.672Z,13.12
2023-04-15T14:59:08.293Z,13.07
2023-04-15T15:01:37.125Z,12.99
2023-04-15T15:04:07.028Z,12.95
2023-04-15T15:06:37.352Z,12.93
2023-04-15T15:09:06.212Z,12.91
2023-04-15T15:11:35.224Z,12.90
2023-04-15T15:14:03.500Z,13.00
2023-04-15T15:16:32.475Z,13.03
2023-04-15T15:19:01.166Z,13.05
2023-04-15T15:21:31.987Z,13.02
2023-04-15T15:24:01.629Z,13.06
2023-04-15T15:26:30.579Z,13.04
2023-04-15T15:28:58.952Z,13.00
2023-04-15T15:31:27.994Z,12.97
2023-04-15T15:33:56.796Z,12.92
2023-04-15T15:36:27.356Z,12.86
2023-04-15T15:38:57.308Z,12.86
2023-04-15T15:41:27.009Z,12.69
2023-04-15T15:43:56.086Z,12.84
2023-04-15T15:46:25.175Z,12.84
2023-04-15T15:48:53.851Z,12.78
2023-04-15T15:51:22.740Z,12.70
2023-04-15T15:53:51.657Z,12.63
2023-04-15T15:56:21.745Z,12.65
2023-04-15T15:58:50.433Z,12.60
2023-04-15T16:01:18.901Z,12.46
2023-04-15T16:03:47.911Z,12.36
2023-04-15T16:06:16.813Z,12.36
2023-04-15T16:08:45.660Z,12.37
2023-04-15T16:11:14.068Z,12.38
2023-04-15T16:13:44.072Z,12.38
2023-04-15T16:16:12.532Z,12.23
2023-04-15T16:18:41.995Z,12.28
2023-04-15T16:21:10.642Z,12.30
2023-04-15T16:23:40.208Z,12.19
2023-04-15T16:26:08.642Z,12.23
2023-04-15T16:28:37.394Z,12.20
2023-04-15T16:31:07.648Z,12.20
2023-04-15T16:33:36.484Z,12.20
2023-04-15T16:36:05.525Z,12.22
2023-04-15T16:38:34.615Z,12.22
2023-04-15T16:41:03.622Z,12.24
2023-04-15T16:43:32.390Z,12.11
2023-04-15T16:46:00.749Z,12.21
2023-04-15T16:48:31.259Z,12.24
2023-04-15T16:50:59.893Z,12.24
2023-04-15T16:53:28.664Z,12.13
2023-04-15T16:55:58.058Z,12.09
2023-04-15T16:58:27.872Z,12.05
2023-04-15T17:00:56.740Z,11.98
2023-04-15T17:03:26.999Z,11.97
2023-04-15T17:05:57.347Z,11.98
2023-04-15T17:08:26.083Z,11.94
2023-04-15T17:10:55.316Z,11.88
2023-04-15T17:13:24.378Z,11.82
2023-04-15T17:15:55.133Z,11.86
2023-04-15T17:18:24.929Z,11.82
2023-04-15T17:20:53.307Z,11.82
2023-04-15T17:23:23.881Z,11.78
2023-04-15T17:25:52.754Z,11.78
2023-04-15T17:28:21.859Z,11.75
2023-04-15T17:30:50.897Z,11.74
2023-04-15T17:33:56.175Z,11.76
2023-04-15T17:36:08.915Z,11.75
2023-04-15T17:38:41.824Z,11.77
2023-04-15T17:41:10.284Z,11.73
2023-04-15T17:43:39.290Z,11.75
2023-04-15T17:46:08.395Z,11.77
2023-04-15T17:48:37.960Z,11.75
2023-04-15T17:51:06.442Z,11.74
2023-04-15T17:53:35.195Z,11.72
2023-04-15T17:56:05.296Z,11.71
2023-04-15T17:58:34.343Z,11.67
2023-04-15T18:01:03.124Z,11.68
2023-04-15T18:03:31.861Z,11.70
2023-04-15T18:06:01.397Z,11.74
2023-04-15T18:08:30.316Z,11.61
2023-04-15T18:10:59.250Z,11.69
2023-04-15T18:13:29.674Z,11.75
2023-04-15T18:15:58.161Z,11.78
2023-04-15T18:18:27.176Z,11.81
2023-04-15T18:20:55.600Z,11.81
2023-04-15T18:23:24.316Z,11.82
2023-04-15T18:25:52.618Z,11.82
2023-04-15T18:28:23.691Z,11.82
2023-04-15T18:30:54.804Z,11.68
2023-04-15T18:33:25.197Z,11.67
2023-04-15T18:35:53.678Z,11.62
2023-04-15T18:38:22.501Z,11.63
2023-04-15T18:40:50.916Z,11.65
2023-04-15T18:43:20.406Z,11.61
2023-04-15T18:45:49.146Z,11.63
2023-04-15T18:48:19.430Z,11.61
2023-04-15T18:50:48.188Z,11.59
2023-04-15T18:53:17.290Z,11.61
2023-04-15T18:55:45.718Z,11.52
2023-04-15T18:58:14.457Z,11.56
2023-04-15T19:00:43.983Z,11.56
2023-04-15T19:03:12.853Z,11.56
2023-04-15T19:05:43.013Z,11.54
2023-04-15T19:08:12.529Z,11.55
2023-04-15T19:10:41.274Z,11.50
2023-04-15T19:13:10.026Z,11.41
2023-04-15T19:15:38.380Z,11.43
2023-04-15T19:18:10.655Z,11.44
2023-04-15T19:20:40.323Z,11.43
2023-04-15T19:23:12.740Z,11.43
2023-04-15T19:25:41.554Z,11.45
2023-04-15T19:28:10.586Z,11.38
2023-04-15T19:30:39.139Z,11.32
2023-04-15T19:33:07.971Z,11.33
2023-04-15T19:35:36.466Z,11.36
2023-04-15T19:38:06.918Z,11.28
2023-04-15T19:40:36.752Z,11.27
2023-04-15T19:43:05.861Z,11.25
2023-04-15T19:45:35.685Z,11.23
2023-04-15T19:48:06.248Z,11.23
2023-04-15T19:50:34.906Z,11.21
2023-04-15T19:53:04.121Z,11.19
2023-04-15T19:55:32.706Z,11.19
2023-04-15T19:58:03.208Z,11.17
2023-04-15T20:00:32.579Z,11.16
2023-04-15T20:03:01.605Z,11.02
2023-04-15T20:05:30.122Z,11.04
2023-04-15T20:07:59.892Z,11.04
2023-04-15T20:10:28.391Z,11.04
2023-04-15T20:12:57.161Z,11.06
2023-04-15T20:15:28.153Z,11.04
2023-04-15T20:17:57.153Z,11.03
2023-04-15T20:20:25.636Z,11.01
2023-04-15T20:22:54.608Z,10.94
2023-04-15T20:25:22.986Z,11.00
2023-04-15T20:27:51.718Z,11.01
2023-04-15T20:30:20.282Z,10.94
2023-04-15T20:32:50.758Z,10.89
2023-04-15T20:35:19.938Z,10.90
2023-04-15T20:37:50.816Z,10.89
2023-04-15T20:40:19.337Z,10.85
2023-04-15T20:42:48.048Z,10.86
2023-04-15T20:45:16.650Z,10.86
2023-04-15T20:47:45.485Z,10.86
2023-04-15T20:50:16.011Z,10.84
2023-04-15T20:52:45.510Z,10.81
2023-04-15T20:55:14.135Z,10.75
2023-04-15T20:57:43.162Z,10.73
2023-04-15T21:00:12.387Z,10.73
2023-04-15T21:02:41.432Z,10.67
2023-04-15T21:05:10.290Z,10.74
2023-04-15T21:07:41.396Z,10.66
2023-04-15T21:10:10.756Z,10.63
2023-04-15T21:12:41.180Z,10.62
2023-04-15T21:15:10.922Z,10.59
2023-04-15T21:17:40.113Z,10.59
2023-04-15T21:20:09.978Z,10.59
2023-04-15T21:22:40.614Z,10.57
2023-04-15T21:25:10.161Z,10.59
2023-04-15T21:27:39.554Z,10.60
2023-04-15T21:30:09.117Z,10.65
2023-04-15T21:32:37.942Z,10.53
2023-04-15T21:35:07.840Z,10.59
2023-04-15T21:37:37.632Z,10.61
2023-04-15T21:40:09.487Z,10.64
2023-04-15T21:42:38.322Z,10.64
2023-04-15T21:45:08.081Z,10.69
2023-04-15T21:48:04.585Z,10.65
2023-04-15T21:50:25.625Z,10.64
2023-04-15T21:52:54.448Z,10.62
2023-04-15T21:55:24.559Z,10.64
2023-04-15T21:57:53.276Z,10.64
2023-04-15T22:00:23.263Z,10.66
2023-04-15T22:02:53.110Z,10.69
2023-04-15T22:05:22.097Z,10.70
2023-04-15T22:07:50.830Z,10.68
2023-04-15T22:10:19.687Z,10.72
2023-04-15T22:12:50.105Z,10.71
2023-04-15T22:15:18.514Z,10.70
2023-04-15T22:17:47.582Z,10.67
2023-04-15T22:20:16.094Z,10.62
2023-04-15T22:22:45.422Z,10.62
2023-04-15T22:25:13.989Z,10.62
2023-04-15T22:27:42.961Z,10.59
2023-04-15T22:30:14.359Z,10.55
2023-04-15T22:32:43.928Z,10.53
2023-04-15T22:35:12.501Z,10.52
2023-04-15T22:37:41.279Z,10.52
2023-04-15T22:40:11.105Z,10.48
2023-04-15T22:42:40.032Z,10.45
2023-04-15T22:45:09.626Z,10.38
2023-04-15T22:47:39.579Z,10.24
2023-04-15T22:50:09.423Z,10.23
2023-04-15T22:52:38.363Z,10.27
2023-04-15T22:55:07.930Z,10.27
2023-04-15T22:57:36.756Z,10.23
2023-04-15T23:00:05.908Z,10.19
2023-04-15T23:02:34.995Z,10.14
2023-04-15T23:05:12.549Z,10.10
2023-04-15T23:07:42.297Z,10.02
2023-04-15T23:10:11.331Z,10.04
2023-04-15T23:12:40.331Z,9.99
2023-04-15T23:15:10.210Z,9.98
2023-04-15T23:17:38.981Z,9.95
2023-04-15T23:20:09.838Z,9.93
2023-04-15T23:22:38.740Z,9.93
2023-04-15T23:25:07.608Z,9.94
2023-04-15T23:27:37.232Z,9.94
2023-04-15T23:30:06.546Z,9.91
2023-04-15T23:32:35.715Z,9.88
2023-04-15T23:35:04.174Z,9.85
2023-04-15T23:37:34.597Z,9.86
2023-04-15T23:40:02.976Z,9.85
2023-04-15T23:42:31.978Z,9.84
2023-04-15T23:45:00.610Z,9.80
2023-04-15T23:47:29.625Z,9.77
2023-04-15T23:49:58.054Z,9.79
2023-04-15T23:52:28.338Z,9.83
2023-04-15T23:54:58.408Z,9.73
2023-04-15T23:57:27.394Z,9.71
2023-04-15T23:59:56.355Z,9.75
